Time;durP1;ratioP1;P1;durP2;ratioP2;P2;SDS_P1;SDS_P2;PMS_P1;PMS_P2;Temp;Humidity;BMP_temperature;BMP_pressure;BME280_temperature;BME280_humidity;BME280_pressure;Samples;Min_cycle;Max_cycle;Signal;HPM_P1;HPM_P2
2022/08/03 04:30:28;;;;;;;;;4.00;4.00;;;;;25.07;46.69;101235.28;6166461;22;45446;31
2022/08/03 04:32:57;;;;;;;;;6.33;4.00;;;;;25.10;47.35;101236.81;4970668;28;45287;-60
2022/08/03 04:35:24;;;;;;;;;5.00;4.00;;;;;25.12;47.11;101234.75;4971630;28;45584;-60
2022/08/03 04:37:51;;;;;;;;;3.00;2.67;;;;;25.15;46.61;101239.03;4958017;28;47050;-61
2022/08/03 04:40:24;;;;;;;;;6.00;6.00;;;;;25.15;46.97;101236.31;4964681;28;45424;-61
2022/08/03 04:42:52;;;;;;;;;3.00;0.00;;;;;25.17;46.86;101232.41;4969903;28;45232;-62
2022/08/03 04:45:18;;;;;;;;;4.67;4.00;;;;;25.17;47.02;101240.56;4974757;28;45489;-62
2022/08/03 04:47:43;;;;;;;;;5.00;4.00;;;;;25.18;47.04;101234.13;4964159;28;46341;-62
2022/08/03 04:50:10;;;;;;;;;6.33;4.67;;;;;25.20;46.71;101234.81;4955735;28;45377;-62
2022/08/03 04:52:35;;;;;;;;;4.00;4.00;;;;;25.21;47.32;101228.38;4959516;28;45526;-62
2022/08/03 04:55:01;;;;;;;;;5.33;3.67;;;;;25.21;46.65;101225.66;4972132;28;68513;-62
2022/08/03 04:57:26;;;;;;;;;7.00;6.00;;;;;25.23;46.77;101223.59;4970249;28;71960;-62
2022/08/03 04:59:55;;;;;;;;;7.33;4.00;;;;;25.23;47.16;101228.22;4979538;28;68689;-62
2022/08/03 05:02:21;;;;;;;;;7.00;6.00;;;;;25.24;47.17;101232.66;4975862;28;45347;-62
2022/08/03 05:04:47;;;;;;;;;6.00;4.33;;;;;25.26;46.84;101233.31;4975905;28;45469;-62
2022/08/03 05:07:13;;;;;;;;;8.00;7.00;;;;;25.27;46.84;101238.59;4972396;28;46239;-62
2022/08/03 05:09:39;;;;;;;;;4.00;3.00;;;;;25.32;46.75;101239.97;4974833;28;45481;-60
2022/08/03 05:12:05;;;;;;;;;5.00;5.00;;;;;25.35;46.54;101242.41;4970095;28;45457;-60
2022/08/03 05:14:32;;;;;;;;;7.33;7.33;;;;;25.37;47.37;101241.22;4976081;28;45412;-62
2022/08/03 05:16:57;;;;;;;;;6.00;6.00;;;;;25.37;46.50;101238.50;4972693;28;45317;-61
2022/08/03 05:19:22;;;;;;;;;5.33;5.33;;;;;25.40;47.08;101234.59;4975287;28;69324;-61
2022/08/03 05:21:48;;;;;;;;;6.00;4.67;;;;;25.42;47.08;101243.44;4970535;28;45562;-62
2022/08/03 05:24:13;;;;;;;;;3.67;2.67;;;;;25.46;46.42;101238.53;4975231;28;63257;-62
2022/08/03 05:26:38;;;;;;;;;7.67;7.67;;;;;25.48;46.77;101236.50;4972654;28;72556;-62
2022/08/03 05:29:04;;;;;;;;;6.00;5.00;;;;;25.51;47.09;101247.91;4979180;28;70606;-62
2022/08/03 05:31:29;;;;;;;;;4.00;3.00;;;;;25.53;46.51;101237.72;4969549;28;67649;-62
2022/08/03 05:33:55;;;;;;;;;4.67;4.67;;;;;25.58;46.71;101232.63;4976151;28;45637;-62
2022/08/03 05:36:21;;;;;;;;;5.00;5.00;;;;;25.62;46.85;101241.31;4976417;28;45465;-62
2022/08/03 05:38:46;;;;;;;;;5.33;5.33;;;;;25.63;46.30;101236.72;4975494;28;69620;-62
2022/08/03 05:41:11;;;;;;;;;6.67;4.67;;;;;25.64;46.27;101244.72;4974814;28;63267;-62
2022/08/03 05:43:37;;;;;;;;;4.00;4.00;;;;;25.63;46.72;101251.22;4972966;28;54812;-62
2022/08/03 05:46:02;;;;;;;;;7.00;6.00;;;;;25.65;46.06;101254.59;4974811;28;50198;-62
2022/08/03 05:48:27;;;;;;;;;5.00;5.00;;;;;25.66;46.74;101252.75;4978863;28;62592;-62
2022/08/03 05:50:53;;;;;;;;;4.67;3.00;;;;;25.66;46.70;101245.41;4976913;28;45353;-62
2022/08/03 05:53:18;;;;;;;;;6.00;4.33;;;;;25.63;46.60;101244.88;4977416;28;46090;-62
2022/08/03 05:55:43;;;;;;;;;7.00;4.00;;;;;25.64;46.55;101244.72;4971750;28;73204;-62
2022/08/03 05:58:09;;;;;;;;;4.00;3.00;;;;;25.69;46.21;101245.06;4978504;28;68388;-61
2022/08/03 06:00:34;;;;;;;;;4.67;4.67;;;;;25.75;46.67;101249.03;4973361;28;62527;-61
2022/08/03 06:02:59;;;;;;;;;6.33;5.67;;;;;25.76;45.97;101250.72;4969616;28;53382;-61
2022/08/03 06:05:27;;;;;;;;;5.67;5.33;;;;;25.79;46.29;101255.84;4970116;28;46336;-62
2022/08/03 06:07:52;;;;;;;;;6.33;5.67;;;;;25.71;46.59;101256.66;4963335;28;45172;-61
2022/08/03 06:10:17;;;;;;;;;6.67;5.00;;;;;25.75;46.05;101260.75;4966576;28;45210;-62
2022/08/03 06:12:46;;;;;;;;;4.33;4.33;;;;;25.81;46.58;101258.41;4961479;28;68184;-61
2022/08/03 06:15:12;;;;;;;;;5.67;5.67;;;;;25.84;46.21;101256.19;4965774;28;45434;-61
2022/08/03 06:17:47;;;;;;;;;7.00;7.00;;;;;25.91;46.55;101254.50;4962767;28;72187;-61
2022/08/03 06:20:15;;;;;;;;;7.00;4.00;;;;;25.98;45.95;101253.84;4963466;28;45350;-62
2022/08/03 06:22:40;;;;;;;;;5.00;5.00;;;;;26.02;46.27;101260.66;4963677;28;45588;-62
2022/08/03 06:25:06;;;;;;;;;6.33;5.67;;;;;26.00;45.61;101265.44;4966252;28;46133;-61
2022/08/03 06:27:31;;;;;;;;;6.67;6.00;;;;;25.99;45.83;101258.28;4968707;28;45330;-60
2022/08/03 06:29:57;;;;;;;;;7.00;6.67;;;;;25.90;46.45;101263.72;4967018;28;45300;-62
2022/08/03 06:32:22;;;;;;;;;6.67;6.00;;;;;25.88;46.36;101271.19;4967395;28;68465;-61
2022/08/03 06:34:47;;;;;;;;;7.00;5.00;;;;;25.92;45.88;101266.28;4968066;28;45439;-62
2022/08/03 06:37:13;;;;;;;;;7.33;7.00;;;;;26.07;45.93;101264.63;4967989;28;66485;-62
2022/08/03 06:39:38;;;;;;;;;9.67;6.00;;;;;26.39;45.97;101257.50;4959764;28;45402;-62
2022/08/03 06:42:04;;;;;;;;;7.00;5.00;;;;;28.37;44.66;101255.97;4959646;28;45601;-62
2022/08/03 06:44:29;;;;;;;;;4.00;4.00;;;;;31.34;41.56;101258.19;4960740;28;45698;-62
2022/08/03 06:46:55;;;;;;;;;7.33;6.33;;;;;34.29;36.62;101255.19;4973059;28;45595;-62
2022/08/03 06:49:20;;;;;;;;;4.33;2.67;;;;;34.99;33.46;101266.31;4986253;28;45484;-57
2022/08/03 06:51:46;;;;;;;;;3.00;3.00;;;;;33.61;33.04;101264.06;4980322;28;54880;-57
2022/08/03 06:54:11;;;;;;;;;4.33;3.00;;;;;32.08;34.17;101254.88;4968438;28;46082;-57
2022/08/03 06:56:37;;;;;;;;;4.67;4.33;;;;;30.89;36.07;101265.09;4969668;28;67795;-57
2022/08/03 06:59:02;;;;;;;;;5.00;5.00;;;;;30.05;37.78;101259.25;4962381;28;45910;-56
2022/08/03 07:01:27;;;;;;;;;4.00;4.00;;;;;29.44;38.38;101263.16;4963857;28;45684;-57
2022/08/03 07:03:55;;;;;;;;;4.00;4.00;;;;;28.94;39.08;101264.72;4963861;28;73531;-57
2022/08/03 07:06:20;;;;;;;;;6.00;5.00;;;;;28.57;39.98;101260.94;4976344;28;45543;-57
2022/08/03 07:08:45;;;;;;;;;5.33;4.33;;;;;28.32;40.12;101263.88;4962028;28;45714;-57
2022/08/03 07:11:11;;;;;;;;;5.67;5.00;;;;;28.11;41.15;101257.19;4952135;28;60714;-58
2022/08/03 07:13:36;;;;;;;;;2.67;2.00;;;;;27.95;41.47;101263.59;4975880;28;46027;-57
2022/08/03 07:16:02;;;;;;;;;6.67;4.33;;;;;27.87;41.48;101256.28;4980652;28;45337;-58
2022/08/03 07:18:28;;;;;;;;;0.00;0.00;;;;;27.84;42.02;101259.38;4959959;28;45457;-57
2022/08/03 07:20:53;;;;;;;;;3.00;3.00;;;;;27.81;42.11;101265.22;4960341;28;45476;-58
2022/08/03 07:23:19;;;;;;;;;5.33;4.00;;;;;27.84;41.81;101261.25;4972672;28;46054;-57
2022/08/03 07:25:44;;;;;;;;;5.00;5.00;;;;;27.88;42.01;101255.25;4954710;28;45344;-58
2022/08/03 07:28:10;;;;;;;;;6.33;5.67;;;;;27.99;42.00;101259.47;4976608;28;45476;-58
2022/08/03 07:30:36;;;;;;;;;6.67;4.67;;;;;28.11;41.56;101257.19;4975651;28;45506;-59
2022/08/03 07:33:03;;;;;;;;;5.00;4.00;;;;;28.25;41.31;101260.16;4961183;28;47137;-58
2022/08/03 07:35:28;;;;;;;;;4.67;4.33;;;;;28.37;41.11;101245.88;4942934;28;45483;-58
2022/08/03 07:37:53;;;;;;;;;6.00;6.00;;;;;28.57;40.81;101250.84;4967236;28;45318;-57
2022/08/03 07:40:19;;;;;;;;;4.67;3.67;;;;;28.78;40.71;101261.09;4975552;28;65718;-56
2022/08/03 07:42:44;;;;;;;;;8.33;4.67;;;;;29.02;40.45;101257.28;4973797;28;54254;-56
2022/08/03 07:45:09;;;;;;;;;8.00;7.00;;;;;29.28;39.45;101253.25;4973496;28;69097;-56
2022/08/03 07:47:35;;;;;;;;;4.67;2.67;;;;;29.55;38.63;101259.06;4973696;28;47447;-57
2022/08/03 07:50:00;;;;;;;;;2.67;2.67;;;;;29.80;38.67;101259.59;4969876;28;64540;-56
2022/08/03 07:55:10;;;;;;;;;6.00;6.00;;;;;30.57;37.60;101259.13;4970122;28;45453;-57
2022/08/03 07:57:35;;;;;;;;;6.67;5.33;;;;;30.99;38.18;101260.09;4971140;28;45844;-57
2022/08/03 08:00:01;;;;;;;;;8.00;6.33;;;;;31.39;37.01;101252.06;4977341;28;45493;-57
2022/08/03 08:02:26;;;;;;;;;7.00;5.67;;;;;31.84;36.25;101257.16;4973035;28;45397;-57
2022/08/03 08:04:51;;;;;;;;;4.00;4.00;;;;;32.29;35.11;101256.63;4973478;28;69428;-58
2022/08/03 08:07:16;;;;;;;;;7.00;4.67;;;;;32.70;34.33;101254.72;4969745;28;68189;-58
2022/08/03 08:09:42;;;;;;;;;5.00;5.00;;;;;33.13;34.57;101255.09;4969120;28;70580;-58
2022/08/03 08:12:08;;;;;;;;;5.00;5.00;;;;;33.58;34.84;101259.84;4965271;28;59543;-57
2022/08/03 08:14:34;;;;;;;;;6.33;6.33;;;;;33.99;32.92;101260.53;4962430;28;45491;-58
2022/08/03 08:16:59;;;;;;;;;9.67;6.00;;;;;34.41;32.51;101249.84;4968572;28;45572;-58
2022/08/03 08:19:25;;;;;;;;;5.00;4.33;;;;;34.89;30.29;101255.81;4974137;28;45490;-58
2022/08/03 08:21:50;;;;;;;;;3.33;3.33;;;;;35.40;30.30;101256.53;4970679;28;71844;-58
2022/08/03 08:24:15;;;;;;;;;3.75;3.75;;;;;35.78;27.54;101253.47;4976323;28;45513;-58
2022/08/03 08:26:41;;;;;;;;;6.67;5.00;;;;;36.14;28.23;101252.75;4968667;28;67481;-58
2022/08/03 08:29:06;;;;;;;;;5.00;4.00;;;;;36.61;28.38;101250.13;4970216;28;50621;-57
2022/08/03 08:31:31;;;;;;;;;6.67;4.00;;;;;37.08;26.22;101247.31;4975661;28;45486;-59
2022/08/03 08:33:57;;;;;;;;;3.00;3.00;;;;;37.44;25.85;101240.88;4971556;28;66407;-57
2022/08/03 08:36:23;;;;;;;;;6.67;4.00;;;;;37.76;26.05;101244.00;4976110;28;45367;-57
2022/08/03 08:38:48;;;;;;;;;6.33;4.33;;;;;38.28;26.06;101245.84;4979302;28;45392;-57
2022/08/03 08:41:14;;;;;;;;;4.00;4.00;;;;;38.87;25.65;101238.97;4969816;28;72657;-57
2022/08/03 08:43:41;;;;;;;;;2.00;2.00;;;;;39.49;23.37;101237.00;4966344;28;46086;-59
2022/08/03 08:46:10;;;;;;;;;3.67;3.67;;;;;40.11;22.97;101243.25;4975992;28;45623;-58
2022/08/03 08:48:40;;;;;;;;;4.00;4.00;;;;;40.47;24.25;101241.59;4974913;28;45553;-57
2022/08/03 08:51:05;;;;;;;;;8.00;5.33;;;;;40.75;22.73;101241.53;4981671;28;46094;-58
2022/08/03 08:53:35;;;;;;;;;5.00;5.00;;;;;41.28;23.11;101239.56;4966827;28;68375;-59
2022/08/03 08:56:01;;;;;;;;;2.67;2.67;;;;;41.74;21.55;101236.09;4976671;28;45449;-59
2022/08/03 08:58:29;;;;;;;;;5.33;5.33;;;;;42.28;21.05;101236.75;4970145;28;45785;-59
2022/08/03 09:00:54;;;;;;;;;3.00;3.00;;;;;42.71;19.27;101223.28;4977009;28;45743;-58
2022/08/03 09:03:20;;;;;;;;;2.33;2.00;;;;;43.01;19.82;101229.06;4970467;28;69181;-58
2022/08/03 09:05:45;;;;;;;;;6.33;5.00;;;;;43.11;20.35;101229.88;4974647;28;45450;-57
2022/08/03 09:08:10;;;;;;;;;3.25;3.25;;;;;43.25;20.07;101229.28;4956092;28;64088;-57
2022/08/03 09:10:36;;;;;;;;;1.50;1.50;;;;;43.61;18.75;101235.53;4972627;28;73972;-57
2022/08/03 09:13:01;;;;;;;;;0.00;0.00;;;;;44.08;19.17;101233.25;4971910;28;67891;-59
2022/08/03 09:15:31;;;;;;;;;3.33;2.33;;;;;44.43;17.65;101224.81;4969604;28;67219;-58
2022/08/03 09:18:02;;;;;;;;;3.33;3.33;;;;;44.68;18.83;101226.53;4970174;28;45483;-58
2022/08/03 09:20:30;;;;;;;;;2.50;2.50;;;;;45.15;18.46;101223.19;4969388;28;45364;-58
2022/08/03 09:22:59;;;;;;;;;3.00;3.00;;;;;45.51;17.46;101231.97;4976501;28;45362;-59
2022/08/03 09:25:27;;;;;;;;;2.33;2.00;;;;;45.87;17.85;101223.00;4963426;28;45478;-58
2022/08/03 09:27:53;;;;;;;;;4.00;4.00;;;;;46.24;17.13;101217.59;4973065;28;45452;-58
2022/08/03 09:30:19;;;;;;;;;3.00;2.00;;;;;46.38;16.57;101223.28;4971051;28;46080;-58
2022/08/03 09:32:45;;;;;;;;;2.00;2.00;;;;;46.37;16.70;101224.44;4972397;28;45487;-58
2022/08/03 09:35:12;;;;;;;;;4.00;4.00;;;;;46.62;16.52;101220.28;4969401;28;45343;-58
2022/08/03 09:37:37;;;;;;;;;5.33;4.00;;;;;46.95;16.81;101225.84;4959905;28;45666;-58
2022/08/03 09:40:03;;;;;;;;;2.33;1.00;;;;;47.17;15.07;101222.31;4970031;28;47995;-59
2022/08/03 09:42:29;;;;;;;;;2.33;2.33;;;;;47.41;15.58;101215.56;4969605;28;45441;-59
2022/08/03 09:44:54;;;;;;;;;4.00;4.00;;;;;47.59;14.76;101221.34;4960305;28;45678;-59
2022/08/03 09:47:29;;;;;;;;;4.00;4.00;;;;;47.82;16.31;101210.97;4959490;28;67940;-59
2022/08/03 09:50:03;;;;;;;;;4.33;2.67;;;;;47.87;15.39;101202.38;4959423;28;48404;-59
2022/08/03 09:52:32;;;;;;;;;1.33;1.33;;;;;47.90;14.43;101206.56;4960669;28;45397;-59
2022/08/03 09:55:00;;;;;;;;;2.67;2.67;;;;;47.58;14.93;101214.06;4971802;28;45511;-59
2022/08/03 09:57:26;;;;;;;;;2.00;2.00;;;;;46.99;15.17;101209.16;4961388;28;45380;-59
2022/08/03 09:59:56;;;;;;;;;2.00;2.00;;;;;46.94;15.39;101200.81;4962809;28;46152;-59
2022/08/03 10:02:23;;;;;;;;;2.67;2.00;;;;;47.15;15.09;101193.63;4965037;28;45402;-59
2022/08/03 10:04:51;;;;;;;;;2.00;2.00;;;;;47.59;14.88;101204.47;4967954;28;45661;-59
2022/08/03 10:07:17;;;;;;;;;2.33;2.33;;;;;47.74;14.96;101197.63;4969915;28;45368;-59
2022/08/03 10:09:53;;;;;;;;;3.00;3.00;;;;;47.66;14.58;101199.22;4966527;28;46121;-59
2022/08/03 10:12:18;;;;;;;;;3.33;3.33;;;;;47.80;14.37;101191.56;4970579;28;45398;-59
2022/08/03 10:14:45;;;;;;;;;4.67;4.67;;;;;48.28;13.96;101192.03;4951785;28;68368;-59
2022/08/03 10:17:10;;;;;;;;;2.00;2.00;;;;;48.75;12.62;101192.44;4959156;28;45624;-59
2022/08/03 10:19:36;;;;;;;;;3.00;3.00;;;;;48.92;13.17;101186.03;4969473;28;74596;-59
2022/08/03 10:22:20;;;;;;;;;3.33;3.33;;;;;48.57;13.39;101191.53;4958026;28;45226;-59
2022/08/03 10:25:23;;;;;;;;;1.00;1.00;;;;;48.28;13.26;101184.44;4965037;28;45777;-59
2022/08/03 10:27:50;;;;;;;;;3.00;1.33;;;;;48.46;13.21;101182.50;4967249;28;45631;-59
2022/08/03 10:30:16;;;;;;;;;3.00;1.33;;;;;48.60;13.17;101178.78;4968146;28;72313;-59
2022/08/03 10:32:48;;;;;;;;;4.33;2.67;;;;;49.00;12.90;101173.91;4968805;28;45287;-59
2022/08/03 10:35:16;;;;;;;;;2.00;2.00;;;;;49.51;12.59;101167.81;4961382;28;45521;-59
2022/08/03 10:37:43;;;;;;;;;3.00;3.00;;;;;49.65;11.88;101162.00;4958224;28;45644;-58
2022/08/03 10:40:12;;;;;;;;;1.33;1.33;;;;;49.43;12.12;101165.81;4976990;28;46110;-58
2022/08/03 10:42:40;;;;;;;;;1.67;1.67;;;;;49.29;12.80;101160.34;4968151;28;45307;-58
2022/08/03 10:45:08;;;;;;;;;2.33;2.33;;;;;49.60;12.98;101162.13;4976117;28;45316;-58
2022/08/03 10:47:34;;;;;;;;;1.00;1.00;;;;;49.60;12.06;101153.66;4978458;28;45529;-58
2022/08/03 10:50:00;;;;;;;;;2.00;1.00;;;;;49.85;12.22;101152.00;4961471;28;61748;-58
2022/08/03 10:52:26;;;;;;;;;2.00;2.00;;;;;49.96;12.52;101152.44;4971093;28;45660;-58
2022/08/03 10:57:48;;;;;;;;;1.00;1.00;;;;;50.27;11.98;101142.88;4972970;28;45551;-58
2022/08/03 11:00:15;;;;;;;;;1.33;1.33;;;;;50.45;11.85;101146.50;4974663;28;46356;-58
2022/08/03 11:03:00;;;;;;;;;0.00;0.00;;;;;50.48;11.50;101140.13;4978342;28;45467;-58
2022/08/03 11:05:28;;;;;;;;;2.00;2.00;;;;;50.78;11.74;101137.31;4969025;28;45345;-59
2022/08/03 11:08:18;;;;;;;;;3.33;2.00;;;;;50.90;11.37;101145.06;4979257;28;45449;-58
2022/08/03 11:10:44;;;;;;;;;1.00;1.00;;;;;50.58;11.38;101138.94;4975269;28;46193;-59
2022/08/03 11:13:10;;;;;;;;;2.00;2.00;;;;;50.61;11.28;101135.41;4975073;28;45409;-58
2022/08/03 11:15:36;;;;;;;;;2.00;2.00;;;;;50.61;12.04;101139.06;4971722;28;45535;-59
2022/08/03 11:18:12;;;;;;;;;1.00;1.00;;;;;50.77;12.00;101136.50;4964710;28;45406;-59
2022/08/03 11:20:46;;;;;;;;;1.00;1.00;;;;;50.75;11.34;101124.69;4969473;28;45473;-58
2022/08/03 11:23:12;;;;;;;;;2.00;2.00;;;;;51.02;10.92;101125.34;4974474;28;45512;-58
2022/08/03 11:26:12;;;;;;;;;2.33;0.67;;;;;51.07;10.61;101119.50;4973416;28;45465;-59
2022/08/03 11:28:39;;;;;;;;;1.33;1.33;;;;;50.97;10.77;101117.06;4971572;28;45321;-58
2022/08/03 11:31:26;;;;;;;;;2.00;2.00;;;;;50.76;10.54;101123.53;4959965;28;45615;-58
2022/08/03 11:34:18;;;;;;;;;2.33;1.00;;;;;50.37;10.67;101108.59;4974288;28;45392;-59
2022/08/03 11:37:19;;;;;;;;;2.00;2.00;;;;;50.37;10.80;101114.25;4963717;28;45450;-59
2022/08/03 11:39:46;;;;;;;;;1.67;1.67;;;;;50.25;10.86;101103.66;4968070;28;45378;-59
2022/08/03 11:42:21;;;;;;;;;2.33;2.00;;;;;50.56;10.88;101105.31;4975628;28;46161;-59
2022/08/03 11:44:46;;;;;;;;;2.00;1.67;;;;;51.08;10.80;101104.13;4974512;28;45401;-59
2022/08/03 11:47:16;;;;;;;;;2.00;2.00;;;;;51.43;10.23;101103.03;4978016;28;45397;-57
2022/08/03 11:49:45;;;;;;;;;2.67;1.67;;;;;51.54;10.32;101100.56;4958985;28;45977;-57
2022/08/03 11:52:11;;;;;;;;;0.67;0.67;;;;;51.02;10.85;101101.84;4977800;28;45440;-57
2022/08/03 11:54:37;;;;;;;;;2.00;2.00;;;;;50.94;10.62;101103.56;4975325;28;66437;-57
2022/08/03 11:57:03;;;;;;;;;1.67;1.67;;;;;50.91;11.06;101109.94;4978839;28;45598;-58
2022/08/03 11:59:32;;;;;;;;;2.33;1.33;;;;;50.31;10.45;101109.94;4975989;28;69025;-59
2022/08/03 12:02:07;;;;;;;;;3.00;1.67;;;;;50.41;10.60;101097.44;4979074;28;47032;-59
2022/08/03 12:04:51;;;;;;;;;2.33;2.33;;;;;50.80;10.96;101092.56;4973812;28;45579;-57
2022/08/03 12:07:16;;;;;;;;;2.00;2.00;;;;;51.12;10.73;101093.81;4973699;28;45251;-57
2022/08/03 12:09:43;;;;;;;;;4.33;3.33;;;;;50.67;10.79;101094.44;4975748;28;45611;-57
2022/08/03 12:12:08;;;;;;;;;2.67;2.67;;;;;50.50;10.90;101100.19;4970010;28;45378;-59
2022/08/03 12:14:33;;;;;;;;;1.00;1.00;;;;;50.31;11.20;101090.94;4953761;28;45453;-59
2022/08/03 12:16:59;;;;;;;;;3.00;1.67;;;;;50.55;10.95;101094.34;4964297;28;67384;-57
2022/08/03 12:19:24;;;;;;;;;2.33;2.33;;;;;51.03;10.66;101093.00;4973631;28;65079;-57
2022/08/03 12:21:49;;;;;;;;;1.00;1.00;;;;;51.25;9.87;101089.00;4967568;28;72724;-58
2022/08/03 12:24:15;;;;;;;;;1.00;1.00;;;;;51.33;10.27;101089.28;4972120;28;45207;-58
2022/08/03 12:26:42;;;;;;;;;3.00;1.33;;;;;51.66;10.99;101088.44;4970188;28;45278;-58
2022/08/03 12:29:16;;;;;;;;;2.33;2.00;;;;;52.10;10.12;101095.28;4976468;28;45460;-58
2022/08/03 12:31:41;;;;;;;;;4.33;2.00;;;;;51.59;10.15;101089.00;4967365;28;46208;-58
2022/08/03 12:34:08;;;;;;;;;2.00;2.00;;;;;51.00;10.44;101079.56;4957983;28;66359;-58
2022/08/03 12:36:34;;;;;;;;;2.33;2.33;;;;;51.07;10.10;101082.69;4968113;28;45548;-57
2022/08/03 12:39:03;;;;;;;;;2.33;2.00;;;;;51.03;10.35;101087.34;4973128;28;45492;-57
2022/08/03 12:41:34;;;;;;;;;1.00;1.00;;;;;50.97;10.79;101091.56;4978030;28;45544;-57
2022/08/03 12:44:02;;;;;;;;;3.67;3.00;;;;;50.59;11.14;101086.81;4970902;28;45471;-57
2022/08/03 12:46:31;;;;;;;;;1.67;1.67;;;;;50.24;10.94;101081.38;4970388;28;45315;-57
2022/08/03 12:48:58;;;;;;;;;1.67;1.67;;;;;50.18;11.09;101075.06;4972722;28;45592;-57
2022/08/03 12:51:26;;;;;;;;;2.00;2.00;;;;;50.21;10.66;101076.38;4957528;28;45461;-58
2022/08/03 12:53:53;;;;;;;;;3.00;2.00;;;;;50.11;10.52;101075.59;4975114;28;45376;-57
2022/08/03 12:56:19;;;;;;;;;4.33;3.00;;;;;49.93;10.08;101065.53;4974062;28;45595;-57
2022/08/03 12:58:44;;;;;;;;;3.00;3.00;;;;;49.67;11.29;101066.44;4977403;28;45524;-57
2022/08/03 13:01:10;;;;;;;;;2.00;2.00;;;;;49.60;10.37;101066.09;4974449;28;70474;-57
2022/08/03 13:03:42;;;;;;;;;1.00;1.00;;;;;49.27;10.56;101056.22;4976567;28;68856;-58
2022/08/03 13:06:18;;;;;;;;;2.00;2.00;;;;;48.83;10.92;101063.84;4974644;28;45299;-57
2022/08/03 13:08:46;;;;;;;;;1.00;1.00;;;;;48.49;11.59;101057.78;4975322;28;45538;-58
2022/08/03 13:11:24;;;;;;;;;2.33;2.33;;;;;48.29;11.54;101049.94;4973874;28;46904;-58
2022/08/03 13:13:51;;;;;;;;;3.00;1.00;;;;;48.00;11.78;101051.31;4964026;28;45317;-58
2022/08/03 13:16:16;;;;;;;;;1.67;1.67;;;;;47.59;12.08;101052.41;4973515;28;45362;-58
2022/08/03 13:18:42;;;;;;;;;3.67;2.67;;;;;47.24;12.03;101047.38;4962000;28;45477;-58
2022/08/03 13:21:07;;;;;;;;;2.33;2.33;;;;;46.96;12.12;101046.63;4977507;28;45318;-57
2022/08/03 13:23:33;;;;;;;;;1.00;1.00;;;;;46.32;12.46;101044.66;4979036;28;45475;-58
2022/08/03 13:25:59;;;;;;;;;1.00;1.00;;;;;45.44;13.14;101043.44;4970049;28;53726;-58
2022/08/03 13:28:24;;;;;;;;;1.67;1.00;;;;;44.84;12.65;101030.91;4974109;28;45506;-58
2022/08/03 13:30:49;;;;;;;;;1.33;1.33;;;;;44.43;13.90;101028.63;4972244;28;65993;-58
2022/08/03 13:33:15;;;;;;;;;1.00;1.00;;;;;44.11;13.48;101027.34;4973329;28;54888;-58
2022/08/03 13:35:40;;;;;;;;;4.67;1.67;;;;;43.90;13.82;101026.69;4962595;28;45575;-58
2022/08/03 13:38:05;;;;;;;;;1.00;1.00;;;;;43.63;13.78;101033.69;4961835;28;45388;-58
2022/08/03 13:40:31;;;;;;;;;1.00;1.00;;;;;43.33;14.15;101027.22;4960733;28;66289;-58
2022/08/03 13:42:57;;;;;;;;;3.00;2.00;;;;;42.83;14.82;101029.22;4972270;28;45322;-58
2022/08/03 13:45:23;;;;;;;;;1.00;1.00;;;;;42.60;14.92;101025.97;4962075;28;45773;-58
2022/08/03 13:47:48;;;;;;;;;2.00;2.00;;;;;42.32;15.45;101028.31;4972703;28;45516;-58
2022/08/03 13:50:14;;;;;;;;;1.67;1.67;;;;;41.99;15.29;101027.84;4961612;28;46003;-58
2022/08/03 13:52:39;;;;;;;;;1.00;0.67;;;;;41.94;15.58;101028.72;4967030;28;72047;-58
2022/08/03 13:55:06;;;;;;;;;0.00;0.00;;;;;41.91;15.92;101022.84;4979991;28;63364;-58
2022/08/03 13:57:31;;;;;;;;;1.00;1.00;;;;;41.87;15.56;101024.53;4971091;28;45571;-58
2022/08/03 13:59:57;;;;;;;;;2.33;2.33;;;;;41.84;15.53;101025.94;4972310;28;46161;-58
2022/08/03 14:02:22;;;;;;;;;2.33;2.33;;;;;41.73;15.97;101015.88;4973840;28;45494;-58
2022/08/03 14:04:47;;;;;;;;;2.67;2.33;;;;;41.60;15.60;101015.31;4968863;28;55059;-57
2022/08/03 14:07:13;;;;;;;;;2.00;2.00;;;;;41.33;15.67;101008.06;4962882;28;45536;-58
2022/08/03 14:09:39;;;;;;;;;2.33;2.33;;;;;41.01;16.16;101008.31;4963345;28;46110;-58
2022/08/03 14:12:04;;;;;;;;;2.00;2.00;;;;;40.91;16.16;101011.06;4977254;28;45639;-57
2022/08/03 14:14:30;;;;;;;;;1.33;1.33;;;;;40.75;16.80;101007.41;4973589;28;45701;-58
2022/08/03 14:16:55;;;;;;;;;3.00;1.00;;;;;40.61;16.78;100999.59;4979162;28;45230;-58
2022/08/03 14:19:21;;;;;;;;;2.33;2.33;;;;;40.34;17.11;100988.59;4979773;28;62019;-58
2022/08/03 14:21:46;;;;;;;;;1.33;1.33;;;;;40.25;17.12;100991.06;4979090;28;45547;-58
2022/08/03 14:24:11;;;;;;;;;3.00;3.00;;;;;40.15;16.98;100977.09;4960803;28;66046;-58
2022/08/03 14:26:36;;;;;;;;;2.00;2.00;;;;;40.14;16.95;100975.41;4972368;28;69452;-58
2022/08/03 14:29:03;;;;;;;;;3.25;2.50;;;;;40.06;17.60;100982.28;4977052;28;46745;-58
2022/08/03 14:31:29;;;;;;;;;2.33;2.00;;;;;40.02;17.36;100978.38;4972881;28;45370;-57
2022/08/03 14:33:54;;;;;;;;;2.00;2.00;;;;;39.98;17.04;100974.47;4973576;28;45825;-58
2022/08/03 14:36:19;;;;;;;;;1.67;1.67;;;;;39.94;17.42;100967.78;4976428;28;64838;-58
2022/08/03 14:38:45;;;;;;;;;1.00;1.00;;;;;39.94;17.37;100963.03;4972836;28;70913;-58
2022/08/03 14:41:10;;;;;;;;;1.00;1.00;;;;;39.98;17.53;100964.16;4972769;28;45781;-58
2022/08/03 14:43:36;;;;;;;;;2.67;2.67;;;;;39.88;17.33;100955.75;4972969;28;45460;-58
2022/08/03 14:46:01;;;;;;;;;0.00;0.00;;;;;39.77;17.09;100954.03;4974948;28;66750;-58
2022/08/03 14:48:26;;;;;;;;;3.33;2.00;;;;;39.72;17.36;100948.44;4979258;28;46119;-57
2022/08/03 14:50:53;;;;;;;;;2.00;2.00;;;;;39.70;17.33;100951.50;4974780;28;64208;-58
2022/08/03 14:53:19;;;;;;;;;2.00;1.00;;;;;39.63;17.82;100945.31;4971930;28;45594;-58
2022/08/03 14:55:48;;;;;;;;;1.75;1.25;;;;;39.48;18.08;100938.53;4978100;28;45565;-57
2022/08/03 14:58:14;;;;;;;;;2.00;2.00;;;;;39.25;17.75;100942.53;4971527;28;46368;-57
2022/08/03 15:00:39;;;;;;;;;3.33;2.00;;;;;39.04;18.43;100941.47;4974217;28;45622;-57
2022/08/03 15:03:05;;;;;;;;;3.00;2.00;;;;;38.82;18.25;100934.06;4972822;28;45442;-57
2022/08/03 15:05:30;;;;;;;;;2.33;1.67;;;;;38.59;18.33;100943.50;4976912;28;45338;-58
2022/08/03 15:07:56;;;;;;;;;2.33;2.33;;;;;38.38;18.67;100943.31;4974853;28;67391;-58
2022/08/03 15:10:22;;;;;;;;;0.00;0.00;;;;;38.26;18.65;100939.81;4970536;28;45689;-58
2022/08/03 15:12:47;;;;;;;;;2.00;2.00;;;;;38.17;19.25;100933.00;4971444;28;45374;-58
2022/08/03 15:15:12;;;;;;;;;1.00;1.00;;;;;38.14;19.19;100927.97;4969317;28;68143;-58
2022/08/03 15:17:38;;;;;;;;;2.00;2.00;;;;;38.18;18.72;100921.63;4966893;28;57934;-58
2022/08/03 15:20:04;;;;;;;;;1.00;1.00;;;;;38.25;18.98;100921.44;4967556;28;70728;-58
2022/08/03 15:22:29;;;;;;;;;2.00;2.00;;;;;38.31;18.99;100911.28;4973115;28;45575;-58
2022/08/03 15:24:55;;;;;;;;;2.67;1.67;;;;;38.34;18.91;100907.97;4973006;28;70333;-58
2022/08/03 15:27:20;;;;;;;;;1.25;1.25;;;;;38.34;18.79;100908.78;4967481;28;71170;-58
2022/08/03 15:29:46;;;;;;;;;2.33;2.00;;;;;38.37;18.83;100908.28;4977236;28;45372;-58
2022/08/03 15:32:11;;;;;;;;;0.00;0.00;;;;;38.39;18.70;100902.47;4973394;28;65680;-58
2022/08/03 15:34:36;;;;;;;;;2.00;2.00;;;;;38.44;18.68;100896.16;4973077;28;64807;-58
2022/08/03 15:37:02;;;;;;;;;2.00;2.00;;;;;38.46;18.95;100897.56;4974421;28;69400;-58
2022/08/03 15:39:28;;;;;;;;;1.00;1.00;;;;;38.48;18.78;100900.91;4972202;28;45706;-58
2022/08/03 15:41:54;;;;;;;;;1.00;1.00;;;;;38.54;18.56;100893.47;4967209;28;63686;-58
2022/08/03 15:44:19;;;;;;;;;0.00;0.00;;;;;38.59;18.89;100896.28;4964119;28;45469;-58
2022/08/03 15:46:44;;;;;;;;;1.00;1.00;;;;;38.61;18.40;100893.25;4960116;28;46233;-58
2022/08/03 15:49:10;;;;;;;;;2.00;1.00;;;;;38.66;18.62;100890.53;4960088;28;57589;-58
2022/08/03 15:51:37;;;;;;;;;3.33;1.67;;;;;38.65;18.39;100886.91;4974702;28;65131;-58
2022/08/03 15:54:02;;;;;;;;;0.50;0.50;;;;;38.60;18.81;100884.06;4970108;28;45228;-58
2022/08/03 15:56:28;;;;;;;;;0.00;0.00;;;;;38.58;18.66;100888.22;4976926;28;45228;-58
2022/08/03 15:58:53;;;;;;;;;0.50;0.50;;;;;38.53;18.39;100883.47;4964805;28;64094;-58